X  Chiuso Dati meteorologici dell'aviazione (METAR)        LGTS Thessaloniki Macedonia International
Temperatura
59°F Temperatura
46°F Punto di rugiada
63% Umidità



Vento
5 MPH
7 KM/O
2 M/S
4 KTS



100°
E
Condizioni attuali

Mostly Clear Prevalentemente limpido
Pressione 1020 (hPa) - 30.12 (inHg)
Visibilità 6 (miglio) - 10 (km)
Aeroporto
Codice-Aeroporto LGTS

Posizione: Thessaloniki Macedonia International
Distanza: 85 (mi)

Metar:
METAR LGTS 142320Z 10004KT CAVOK 15/08 Q1020 NOSIG

Ore: 15-04-2024 02:20 EEST